Almyros, Greece
Current Conditions -  °F | °C
As of 10:20 AM on Wednesday 26 Nov 2014 (Local Time) from LGBL Reporting Station
Light Rain Light Rain  
Wind Chill: 42°   Ceiling: 7000
Heat Index: 45°   Visibility: 6mi
Dew Point: 41°   Wind: 5mph
Humidity: 87%   Direction: 320°NW
Pressure: 30.18"   Gusts: NA
Location:  39.18°N, 22.76°E
Report Text: LGBL 260720Z 32004KT 9999 -RA SCT030 OVC070 07/05 Q1022
Loading
Personal Weather Stations






























Interactive Weather Map New forecast layout! Learn more

10-Day Weather Forecast

Advertisements
Track Severe Weather on mobile